createdAt,value
2019-04-13T00:01:20.113Z,14.07
2019-04-13T00:04:29.665Z,14.73
2019-04-13T00:07:32.362Z,15.33
2019-04-13T00:10:44.434Z,18.27
2019-04-13T00:13:48.871Z,14.97
2019-04-13T00:16:53.298Z,18.37
2019-04-13T00:19:58.170Z,15.83
2019-04-13T00:23:02.615Z,15.90
2019-04-13T00:26:07.426Z,15.67
2019-04-13T00:29:12.098Z,14.07
2019-04-13T00:32:16.531Z,17.53
2019-04-13T00:35:20.973Z,15.47
2019-04-13T00:38:25.415Z,16.47
2019-04-13T00:41:29.843Z,16.73
2019-04-13T00:44:34.289Z,14.03
2019-04-13T00:47:38.718Z,15.63
2019-04-13T00:50:43.161Z,15.70
2019-04-13T00:53:47.606Z,14.60
2019-04-13T00:56:52.035Z,15.80
2019-04-13T00:59:56.484Z,17.90
2019-04-13T01:03:01.222Z,18.17
2019-04-13T01:06:06.055Z,14.90
2019-04-13T01:09:10.571Z,16.37
2019-04-13T01:12:14.996Z,15.47
2019-04-13T01:15:19.439Z,15.77
2019-04-13T01:18:23.884Z,17.40
2019-04-13T01:21:28.314Z,16.27
2019-04-13T01:24:32.787Z,16.93
2019-04-13T01:27:37.224Z,15.17
2019-04-13T01:30:41.665Z,15.93
2019-04-13T01:33:46.106Z,14.13
2019-04-13T01:36:50.543Z,14.67
2019-04-13T01:39:54.988Z,14.10
2019-04-13T01:42:59.419Z,14.93
2019-04-13T01:46:03.862Z,15.40
2019-04-13T01:49:08.299Z,14.27
2019-04-13T01:52:12.735Z,13.97
2019-04-13T01:55:17.185Z,17.70
2019-04-13T01:58:21.683Z,15.67
2019-04-13T02:01:40.123Z,16.00
2019-04-13T02:04:44.340Z,15.23
2019-04-13T02:07:51.942Z,15.50
2019-04-13T02:10:58.430Z,15.77
2019-04-13T02:14:03.154Z,17.43
2019-04-13T02:17:07.979Z,15.50
2019-04-13T02:20:12.558Z,15.30
2019-04-13T02:23:17.334Z,15.83
2019-04-13T02:26:21.784Z,16.90
2019-04-13T02:29:26.246Z,16.60
2019-04-13T02:32:30.680Z,16.43
2019-04-13T02:35:36.813Z,14.67
2019-04-13T02:38:41.477Z,19.07
2019-04-13T02:41:45.895Z,17.20
2019-04-13T02:44:50.356Z,17.60
2019-04-13T02:47:54.772Z,19.10
2019-04-13T02:50:59.505Z,16.33
2019-04-13T02:54:04.240Z,21.47
2019-04-13T02:57:08.685Z,17.73
2019-04-13T03:00:13.337Z,19.53
2019-04-13T03:03:18.118Z,15.50
2019-04-13T03:06:22.568Z,16.87
2019-04-13T03:09:27.277Z,18.70
2019-04-13T03:12:31.891Z,18.13
2019-04-13T03:15:41.238Z,18.83
2019-04-13T03:19:03.406Z,19.83
2019-04-13T03:22:08.210Z,18.53
2019-04-13T03:25:12.940Z,15.93
2019-04-13T03:28:17.674Z,17.33
2019-04-13T03:31:22.128Z,25.73
2019-04-13T03:34:26.830Z,20.33
2019-04-13T03:37:31.556Z,20.27
2019-04-13T03:40:36.283Z,18.80
2019-04-13T03:43:41.019Z,22.00
2019-04-13T03:46:45.460Z,19.57
2019-04-13T03:49:49.897Z,18.83
2019-04-13T03:52:54.345Z,22.10
2019-04-13T03:55:58.793Z,21.00
2019-04-13T03:59:03.548Z,21.27
2019-04-13T04:02:07.989Z,21.30
2019-04-13T04:05:12.699Z,21.70
2019-04-13T04:08:17.839Z,21.10
2019-04-13T04:11:22.285Z,20.57
2019-04-13T04:14:26.799Z,22.37
2019-04-13T04:17:31.733Z,21.97
2019-04-13T04:20:36.455Z,22.57
2019-04-13T04:23:40.891Z,21.70
2019-04-13T04:26:46.935Z,23.73
2019-04-13T04:29:51.395Z,20.83
2019-04-13T04:32:59.014Z,21.20
2019-04-13T04:36:03.796Z,23.73
2019-04-13T04:39:10.079Z,22.87
2019-04-13T04:42:15.511Z,24.30
2019-04-13T04:45:20.854Z,22.97
2019-04-13T04:48:25.328Z,23.83
2019-04-13T04:51:31.236Z,25.23
2019-04-13T04:54:38.050Z,24.03
2019-04-13T04:57:44.683Z,21.67
2019-04-13T05:00:51.135Z,23.33
2019-04-13T05:03:59.155Z,21.77
2019-04-13T05:07:05.743Z,26.10
2019-04-13T05:10:10.424Z,27.27
2019-04-13T05:13:14.869Z,26.40
2019-04-13T05:16:19.306Z,27.70
2019-04-13T05:19:26.912Z,23.43
2019-04-13T05:22:31.653Z,23.07
2019-04-13T05:25:36.098Z,25.37
2019-04-13T05:28:40.541Z,26.27
2019-04-13T05:31:45.903Z,24.90
2019-04-13T05:34:50.574Z,25.20
2019-04-13T05:37:55.358Z,25.07
2019-04-13T05:41:00.032Z,26.53
2019-04-13T05:44:04.490Z,27.53
2019-04-13T05:47:08.926Z,24.17
2019-04-13T05:50:13.918Z,26.13
2019-04-13T05:53:18.658Z,24.53
2019-04-13T05:56:23.379Z,24.73
2019-04-13T05:59:30.819Z,24.80
2019-04-13T06:02:38.162Z,24.50
2019-04-13T06:05:42.659Z,23.50
2019-04-13T06:08:47.145Z,25.37
2019-04-13T06:11:51.581Z,26.40
2019-04-13T06:14:56.268Z,24.97
2019-04-13T06:18:03.319Z,24.50
2019-04-13T06:21:07.670Z,27.17
2019-04-13T06:24:12.513Z,24.03
2019-04-13T06:27:17.239Z,28.30
2019-04-13T06:30:29.142Z,25.50
2019-04-13T06:33:33.670Z,25.63
2019-04-13T06:36:41.590Z,24.10
2019-04-13T06:39:44.867Z,23.53
2019-04-13T06:42:50.678Z,25.67
2019-04-13T06:45:55.625Z,24.73
2019-04-13T06:49:00.394Z,26.70
2019-04-13T06:52:05.229Z,24.93
2019-04-13T06:55:10.010Z,26.43
2019-04-13T06:58:15.796Z,24.80
2019-04-13T07:01:20.778Z,24.37
2019-04-13T07:04:25.217Z,30.90
2019-04-13T07:07:51.221Z,27.40
2019-04-13T07:11:09.964Z,25.77
2019-04-13T07:14:16.268Z,25.43
2019-04-13T07:17:24.995Z,26.60
2019-04-13T07:20:29.442Z,25.60
2019-04-13T07:23:34.214Z,25.07
2019-04-13T07:26:40.334Z,28.10
2019-04-13T07:29:44.985Z,24.43
2019-04-13T07:32:49.427Z,28.77
2019-04-13T07:35:53.868Z,27.57
2019-04-13T07:38:58.589Z,31.97
2019-04-13T07:42:04.895Z,24.80
2019-04-13T07:45:27.341Z,28.53
2019-04-13T07:48:49.517Z,27.70
2019-04-13T07:52:06.981Z,24.73
2019-04-13T07:55:10.326Z,28.17
2019-04-13T07:58:16.789Z,29.53
2019-04-13T08:01:23.355Z,26.70
2019-04-13T08:04:27.268Z,24.67
2019-04-13T08:07:32.081Z,27.83
2019-04-13T08:10:36.573Z,28.03
2019-04-13T08:13:41.045Z,28.53
2019-04-13T08:16:45.592Z,28.83
2019-04-13T08:19:50.526Z,28.23
2019-04-13T08:22:56.376Z,25.43
2019-04-13T08:26:01.035Z,27.90
2019-04-13T08:29:05.863Z,28.30
2019-04-13T08:32:10.398Z,29.30
2019-04-13T08:35:15.137Z,28.63
2019-04-13T08:38:19.775Z,27.13
2019-04-13T08:41:24.334Z,26.83
2019-04-13T08:44:29.169Z,28.00
2019-04-13T08:47:33.972Z,30.53
2019-04-13T08:50:38.498Z,31.13
2019-04-13T08:53:43.005Z,29.40
2019-04-13T08:56:47.469Z,34.40
2019-04-13T08:59:52.282Z,28.73
2019-04-13T09:02:56.798Z,28.77
2019-04-13T09:06:01.260Z,30.70
2019-04-13T09:09:07.601Z,30.80
2019-04-13T09:12:12.067Z,27.33
2019-04-13T09:15:16.967Z,30.00
2019-04-13T09:18:21.254Z,28.73
2019-04-13T09:21:31.837Z,29.17
2019-04-13T09:24:36.491Z,30.30
2019-04-13T09:27:41.431Z,28.50
2019-04-13T09:30:46.336Z,29.37
2019-04-13T09:33:50.793Z,29.37
2019-04-13T09:37:00.066Z,30.70
2019-04-13T09:40:01.772Z,32.93
2019-04-13T09:43:07.869Z,31.40
2019-04-13T09:46:12.320Z,30.73
2019-04-13T09:49:19.569Z,31.03
2019-04-13T09:52:22.922Z,34.47
2019-04-13T09:55:27.777Z,33.17
2019-04-13T09:58:34.974Z,28.80
2019-04-13T10:01:38.372Z,32.30
2019-04-13T10:04:42.822Z,33.70
2019-04-13T10:07:47.515Z,34.23
2019-04-13T10:10:51.963Z,29.30
2019-04-13T10:13:58.323Z,34.30
2019-04-13T10:17:02.532Z,28.13
2019-04-13T10:20:10.407Z,28.47
2019-04-13T10:23:13.730Z,29.33
2019-04-13T10:26:18.177Z,28.13
2019-04-13T10:29:22.920Z,28.00
2019-04-13T10:32:30.872Z,29.17
2019-04-13T10:35:33.513Z,28.77
2019-04-13T10:38:37.953Z,29.80
2019-04-13T10:41:42.382Z,28.53
2019-04-13T10:44:48.816Z,28.43
2019-04-13T10:48:07.033Z,29.67
2019-04-13T10:51:25.186Z,29.67
2019-04-13T10:54:29.643Z,30.57
2019-04-13T10:57:34.072Z,30.07
2019-04-13T11:00:38.528Z,30.40
2019-04-13T11:03:42.983Z,31.77
2019-04-13T11:06:47.714Z,29.80
2019-04-13T11:09:52.164Z,30.13
2019-04-13T11:12:56.878Z,30.70
2019-04-13T11:16:01.390Z,30.47
2019-04-13T11:19:07.790Z,29.93
2019-04-13T11:22:11.992Z,33.67
2019-04-13T11:25:16.573Z,31.97
2019-04-13T11:28:21.785Z,29.40
2019-04-13T11:31:26.428Z,28.30
2019-04-13T11:34:31.209Z,30.83
2019-04-13T11:37:35.642Z,28.77
2019-04-13T11:40:41.042Z,29.93
2019-04-13T11:43:56.657Z,31.40
2019-04-13T11:47:03.040Z,33.03
2019-04-13T11:50:10.325Z,29.40
2019-04-13T11:53:14.814Z,29.07
2019-04-13T11:56:19.574Z,34.17
2019-04-13T11:59:24.056Z,30.20
2019-04-13T12:02:30.206Z,31.30
2019-04-13T12:05:36.661Z,31.40
2019-04-13T12:08:48.151Z,32.93
2019-04-13T12:11:55.308Z,31.87
2019-04-13T12:15:07.159Z,33.07
2019-04-13T12:18:30.516Z,31.73
2019-04-13T12:21:49.334Z,34.73
2019-04-13T12:24:54.185Z,32.43
2019-04-13T12:27:58.910Z,33.63
2019-04-13T12:31:03.362Z,35.40
2019-04-13T12:34:07.986Z,35.20
2019-04-13T12:37:12.431Z,38.80
2019-04-13T12:40:35.343Z,35.27
2019-04-13T12:43:40.280Z,38.93
2019-04-13T12:46:44.723Z,38.40
2019-04-13T12:49:49.433Z,36.37
2019-04-13T12:52:53.946Z,34.23
2019-04-13T12:55:58.620Z,35.67
2019-04-13T12:59:03.062Z,37.77
2019-04-13T13:02:12.450Z,36.53
2019-04-13T13:05:18.535Z,35.77
2019-04-13T13:08:23.040Z,38.30
2019-04-13T13:11:27.759Z,40.47
2019-04-13T13:14:32.668Z,37.37
2019-04-13T13:17:37.130Z,34.13
2019-04-13T13:20:41.862Z,36.53
2019-04-13T13:23:46.605Z,36.83
2019-04-13T13:26:52.192Z,36.07
2019-04-13T13:29:56.934Z,33.87
2019-04-13T13:33:01.405Z,34.07
2019-04-13T13:36:06.125Z,33.63
2019-04-13T13:39:11.516Z,35.60
2019-04-13T13:42:17.146Z,35.20
2019-04-13T13:45:25.012Z,34.70
2019-04-13T13:48:28.115Z,39.23
2019-04-13T13:51:32.560Z,40.13
2019-04-13T13:54:36.995Z,40.50
2019-04-13T13:57:43.102Z,36.63
2019-04-13T14:01:02.295Z,38.70
2019-04-13T14:04:06.796Z,38.13
2019-04-13T14:07:11.245Z,36.20
2019-04-13T14:10:15.756Z,38.20
2019-04-13T14:13:20.184Z,39.30
2019-04-13T14:16:24.707Z,35.27
2019-04-13T14:19:30.250Z,36.67
2019-04-13T14:22:34.860Z,38.23
2019-04-13T14:25:39.628Z,41.20
2019-04-13T14:28:44.068Z,40.43
2019-04-13T14:31:48.509Z,37.50
2019-04-13T14:34:53.276Z,39.60
2019-04-13T14:37:57.659Z,40.13
2019-04-13T14:41:02.100Z,37.60
2019-04-13T14:44:06.550Z,40.27
2019-04-13T14:47:10.990Z,37.00
2019-04-13T14:50:15.724Z,36.57
2019-04-13T14:53:20.468Z,36.93
2019-04-13T14:56:24.908Z,35.57
2019-04-13T14:59:29.614Z,36.07
2019-04-13T15:02:34.355Z,38.53
2019-04-13T15:05:38.781Z,38.00
2019-04-13T15:08:43.889Z,38.77
2019-04-13T15:11:49.673Z,39.70
2019-04-13T15:14:54.225Z,36.83
2019-04-13T15:18:03.021Z,37.43
2019-04-13T15:21:08.867Z,36.43
2019-04-13T15:24:16.649Z,37.97
2019-04-13T15:27:20.625Z,35.97
2019-04-13T15:30:25.433Z,42.20
2019-04-13T15:33:30.567Z,39.67
2019-04-13T15:36:35.733Z,40.77
2019-04-13T15:39:42.781Z,37.47
2019-04-13T15:42:55.203Z,39.07
2019-04-13T15:45:54.138Z,41.57
2019-04-13T15:49:00.414Z,39.00
2019-04-13T15:52:05.801Z,39.07
2019-04-13T15:55:10.342Z,42.00
2019-04-13T15:58:14.788Z,41.07
2019-04-13T16:01:19.563Z,40.07
2019-04-13T16:04:24.426Z,41.20
2019-04-13T16:07:30.059Z,38.97
2019-04-13T16:10:36.558Z,42.33
2019-04-13T16:13:41.279Z,40.73
2019-04-13T16:16:45.859Z,39.90
2019-04-13T16:19:50.361Z,39.03
2019-04-13T16:22:55.788Z,39.57
2019-04-13T16:26:00.281Z,41.80
2019-04-13T16:29:07.638Z,41.40
2019-04-13T16:32:19.215Z,38.93
2019-04-13T16:35:33.035Z,41.07
2019-04-13T16:38:49.371Z,40.23
2019-04-13T16:41:56.703Z,39.60
2019-04-13T16:44:58.899Z,42.80
2019-04-13T16:48:14.703Z,39.83
2019-04-13T16:51:21.900Z,40.73
2019-04-13T16:54:46.555Z,41.40
2019-04-13T16:57:58.821Z,42.97
2019-04-13T17:01:08.860Z,42.70
2019-04-13T17:04:19.260Z,43.67
2019-04-13T17:07:24.088Z,39.87
2019-04-13T17:10:29.263Z,40.27
2019-04-13T17:13:34.721Z,41.77
2019-04-13T17:16:39.460Z,39.40
2019-04-13T17:19:45.545Z,38.93
2019-04-13T17:23:08.545Z,39.93
2019-04-13T17:26:17.347Z,38.13
2019-04-13T17:29:33.744Z,43.77
2019-04-13T17:32:56.359Z,39.77
2019-04-13T17:36:03.989Z,41.00
2019-04-13T17:39:08.831Z,40.33
2019-04-13T17:42:34.297Z,39.73
2019-04-13T17:45:50.589Z,37.93
2019-04-13T17:48:57.082Z,37.27
2019-04-13T17:52:21.222Z,42.80
2019-04-13T17:55:31.820Z,39.40
2019-04-13T17:58:44.087Z,39.10
2019-04-13T18:01:50.825Z,36.53
2019-04-13T18:05:13.324Z,37.90
2019-04-13T18:08:43.061Z,37.17
2019-04-13T18:11:42.607Z,38.17
2019-04-13T18:14:46.976Z,42.13
2019-04-13T18:17:59.648Z,37.77
2019-04-13T18:21:05.627Z,39.30
2019-04-13T18:24:11.440Z,40.60
2019-04-13T18:27:17.292Z,39.40
2019-04-13T18:30:29.483Z,38.97
2019-04-13T18:33:28.361Z,39.93
2019-04-13T18:36:34.163Z,39.40
2019-04-13T18:39:39.107Z,37.07
2019-04-13T18:42:54.762Z,37.57
2019-04-13T18:45:49.998Z,40.93
2019-04-13T18:48:55.376Z,37.07
2019-04-13T18:52:00.734Z,39.57
2019-04-13T18:55:08.076Z,39.00
2019-04-13T18:58:12.928Z,40.70
2019-04-13T19:01:20.157Z,42.17
2019-04-13T19:04:23.911Z,36.13
2019-04-13T19:07:30.138Z,38.67
2019-04-13T19:10:35.079Z,37.03
2019-04-13T19:13:39.537Z,35.63
2019-04-13T19:16:43.986Z,34.80
2019-04-13T19:19:48.428Z,38.43
2019-04-13T19:22:53.215Z,31.13
2019-04-13T19:25:57.657Z,34.37
2019-04-13T19:29:02.362Z,35.07
2019-04-13T19:32:06.810Z,33.73
2019-04-13T19:35:12.752Z,33.40
2019-04-13T19:38:17.193Z,34.40
2019-04-13T19:41:21.900Z,31.73
2019-04-13T19:44:26.353Z,32.03
2019-04-13T19:47:30.795Z,32.83
2019-04-13T19:50:35.582Z,34.83
2019-04-13T19:53:41.688Z,34.87
2019-04-13T19:56:46.134Z,32.67
2019-04-13T19:59:50.902Z,33.37
2019-04-13T20:02:55.643Z,32.80
2019-04-13T20:06:00.079Z,31.83
2019-04-13T20:09:07.316Z,34.70
2019-04-13T20:12:11.780Z,35.87
2019-04-13T20:15:16.284Z,33.07
2019-04-13T20:18:21.231Z,36.37
2019-04-13T20:21:26.070Z,38.67
2019-04-13T20:24:30.807Z,38.33
2019-04-13T20:27:35.231Z,36.53
2019-04-13T20:30:41.236Z,37.93
2019-04-13T20:33:46.215Z,38.77
2019-04-13T20:36:50.651Z,37.30
2019-04-13T20:40:12.748Z,39.13
2019-04-13T20:43:18.594Z,39.00
2019-04-13T20:46:23.610Z,39.33
2019-04-13T20:49:28.188Z,41.40
2019-04-13T20:52:33.028Z,37.03
2019-04-13T20:55:37.540Z,36.83
2019-04-13T20:58:42.391Z,36.20
2019-04-13T21:01:47.441Z,39.37
2019-04-13T21:04:52.359Z,39.07
2019-04-13T21:07:57.579Z,37.07
2019-04-13T21:11:02.168Z,39.33
2019-04-13T21:14:14.346Z,38.93
2019-04-13T21:17:22.387Z,38.47
2019-04-13T21:20:27.220Z,40.73
2019-04-13T21:23:32.089Z,38.63
2019-04-13T21:26:37.061Z,41.00
2019-04-13T21:29:42.434Z,40.97
2019-04-13T21:32:46.873Z,40.83
2019-04-13T21:35:51.656Z,39.77
2019-04-13T21:38:56.392Z,40.43
2019-04-13T21:42:03.722Z,42.23
2019-04-13T21:45:08.073Z,43.00
2019-04-13T21:48:13.161Z,42.37
2019-04-13T21:51:20.452Z,42.77
2019-04-13T21:54:27.995Z,43.27
2019-04-13T21:57:32.974Z,40.83
2019-04-13T22:01:08.374Z,43.40
2019-04-13T22:04:13.277Z,39.47
2019-04-13T22:07:18.060Z,43.00
2019-04-13T22:10:22.594Z,43.20
2019-04-13T22:13:27.104Z,40.23
2019-04-13T22:16:32.018Z,42.80
2019-04-13T22:19:37.474Z,42.50
2019-04-13T22:22:42.571Z,44.23
2019-04-13T22:25:47.493Z,47.03
2019-04-13T22:29:02.864Z,46.27
2019-04-13T22:32:07.711Z,44.33
2019-04-13T22:35:30.411Z,43.70
2019-04-13T22:38:34.923Z,44.67
2019-04-13T22:41:39.628Z,43.33
2019-04-13T22:44:51.070Z,41.20
2019-04-13T22:47:52.155Z,45.57
2019-04-13T22:50:59.649Z,41.07
2019-04-13T22:54:21.776Z,42.67
2019-04-13T22:57:31.025Z,43.00
2019-04-13T23:00:38.663Z,42.53
2019-04-13T23:03:44.032Z,41.07
2019-04-13T23:06:48.982Z,42.53
2019-04-13T23:09:54.198Z,38.67
2019-04-13T23:12:59.322Z,42.70
2019-04-13T23:16:04.254Z,40.13
2019-04-13T23:19:09.005Z,42.67
2019-04-13T23:22:14.537Z,42.07
2019-04-13T23:25:20.139Z,38.87
2019-04-13T23:28:25.025Z,41.23
2019-04-13T23:31:30.421Z,42.90
2019-04-13T23:34:35.468Z,39.20
2019-04-13T23:37:40.983Z,40.60
2019-04-13T23:40:46.308Z,39.43
2019-04-13T23:43:51.829Z,44.53
2019-04-13T23:46:56.879Z,46.80
2019-04-13T23:50:02.130Z,43.73
2019-04-13T23:53:07.837Z,43.60
2019-04-13T23:56:19.499Z,44.10
2019-04-13T23:59:28.646Z,46.03
